sensor_id;sensor_type;location;lat;lon;timestamp;temperature;humidity
19359;DHT22;9815;52.334;20.890;2023-05-19T00:01:21;10.80;99.90
19359;DHT22;9815;52.334;20.890;2023-05-19T00:03:52;10.70;99.90
19359;DHT22;9815;52.334;20.890;2023-05-19T00:06:21;10.70;99.90
19359;DHT22;9815;52.334;20.890;2023-05-19T00:08:55;10.70;99.90
19359;DHT22;9815;52.334;20.890;2023-05-19T00:11:24;10.70;99.90
19359;DHT22;9815;52.334;20.890;2023-05-19T00:13:56;10.70;99.90
19359;DHT22;9815;52.334;20.890;2023-05-19T00:16:25;10.70;99.90
19359;DHT22;9815;52.334;20.890;2023-05-19T00:18:56;10.90;99.90
19359;DHT22;9815;52.334;20.890;2023-05-19T00:21:26;10.90;99.90
19359;DHT22;9815;52.334;20.890;2023-05-19T00:23:55;10.80;99.90
19359;DHT22;9815;52.334;20.890;2023-05-19T00:26:23;10.70;99.90
19359;DHT22;9815;52.334;20.890;2023-05-19T00:29:04;10.80;99.90
19359;DHT22;9815;52.334;20.890;2023-05-19T00:31:32;10.60;99.90
19359;DHT22;9815;52.334;20.890;2023-05-19T00:34:01;10.60;99.90
19359;DHT22;9815;52.334;20.890;2023-05-19T00:36:29;10.60;99.90
19359;DHT22;9815;52.334;20.890;2023-05-19T00:38:57;10.60;99.90
19359;DHT22;9815;52.334;20.890;2023-05-19T00:41:27;10.60;99.90
19359;DHT22;9815;52.334;20.890;2023-05-19T00:43:55;10.80;99.90
19359;DHT22;9815;52.334;20.890;2023-05-19T00:46:24;10.70;99.90
19359;DHT22;9815;52.334;20.890;2023-05-19T00:48:52;10.60;99.90
19359;DHT22;9815;52.334;20.890;2023-05-19T00:51:22;10.60;99.90
19359;DHT22;9815;52.334;20.890;2023-05-19T00:53:51;10.60;99.90
19359;DHT22;9815;52.334;20.890;2023-05-19T00:56:20;10.60;99.90
19359;DHT22;9815;52.334;20.890;2023-05-19T00:58:50;10.60;99.90
19359;DHT22;9815;52.334;20.890;2023-05-19T01:01:18;10.50;99.90
19359;DHT22;9815;52.334;20.890;2023-05-19T01:03:50;10.50;99.90
19359;DHT22;9815;52.334;20.890;2023-05-19T01:06:18;10.60;99.90
19359;DHT22;9815;52.334;20.890;2023-05-19T01:08:47;10.60;99.90
19359;DHT22;9815;52.334;20.890;2023-05-19T01:11:15;10.60;99.90
19359;DHT22;9815;52.334;20.890;2023-05-19T01:13:44;10.60;99.90
19359;DHT22;9815;52.334;20.890;2023-05-19T01:16:22;10.60;99.90
19359;DHT22;9815;52.334;20.890;2023-05-19T01:18:59;10.60;99.90
19359;DHT22;9815;52.334;20.890;2023-05-19T01:21:47;10.60;99.90
19359;DHT22;9815;52.334;20.890;2023-05-19T01:24:30;10.60;99.90
19359;DHT22;9815;52.334;20.890;2023-05-19T01:27:18;10.60;99.90
19359;DHT22;9815;52.334;20.890;2023-05-19T01:30:22;10.50;99.90
19359;DHT22;9815;52.334;20.890;2023-05-19T01:32:56;10.50;99.90
19359;DHT22;9815;52.334;20.890;2023-05-19T01:35:26;10.50;99.90
19359;DHT22;9815;52.334;20.890;2023-05-19T01:37:58;10.50;99.90
19359;DHT22;9815;52.334;20.890;2023-05-19T01:40:28;10.50;99.90
19359;DHT22;9815;52.334;20.890;2023-05-19T01:42:58;10.50;99.90
19359;DHT22;9815;52.334;20.890;2023-05-19T01:45:30;10.60;99.90
19359;DHT22;9815;52.334;20.890;2023-05-19T01:48:00;10.70;99.90
19359;DHT22;9815;52.334;20.890;2023-05-19T01:50:29;10.50;99.90
19359;DHT22;9815;52.334;20.890;2023-05-19T01:52:58;10.60;99.90
19359;DHT22;9815;52.334;20.890;2023-05-19T01:55:27;10.60;99.90
19359;DHT22;9815;52.334;20.890;2023-05-19T01:58:05;10.60;99.90
19359;DHT22;9815;52.334;20.890;2023-05-19T02:00:47;10.60;99.90
19359;DHT22;9815;52.334;20.890;2023-05-19T02:03:32;10.60;99.90
19359;DHT22;9815;52.334;20.890;2023-05-19T02:06:15;10.60;99.90
19359;DHT22;9815;52.334;20.890;2023-05-19T02:08:53;10.50;99.90
19359;DHT22;9815;52.334;20.890;2023-05-19T02:11:27;10.50;99.90
19359;DHT22;9815;52.334;20.890;2023-05-19T02:14:01;10.60;99.90
19359;DHT22;9815;52.334;20.890;2023-05-19T02:16:32;10.60;99.90
19359;DHT22;9815;52.334;20.890;2023-05-19T02:19:01;10.70;99.90
19359;DHT22;9815;52.334;20.890;2023-05-19T02:21:29;10.60;99.90
19359;DHT22;9815;52.334;20.890;2023-05-19T02:23:57;10.60;99.90
19359;DHT22;9815;52.334;20.890;2023-05-19T02:26:25;10.50;99.90
19359;DHT22;9815;52.334;20.890;2023-05-19T02:28:53;10.50;99.90
19359;DHT22;9815;52.334;20.890;2023-05-19T02:31:23;10.50;99.90
19359;DHT22;9815;52.334;20.890;2023-05-19T02:33:53;10.40;99.90
19359;DHT22;9815;52.334;20.890;2023-05-19T02:36:21;10.40;99.90
19359;DHT22;9815;52.334;20.890;2023-05-19T02:38:49;10.40;99.90
19359;DHT22;9815;52.334;20.890;2023-05-19T02:41:18;10.50;99.90
19359;DHT22;9815;52.334;20.890;2023-05-19T02:43:47;10.50;99.90
19359;DHT22;9815;52.334;20.890;2023-05-19T02:46:17;10.40;99.90
19359;DHT22;9815;52.334;20.890;2023-05-19T02:48:45;10.40;99.90
19359;DHT22;9815;52.334;20.890;2023-05-19T02:51:14;10.50;99.90
19359;DHT22;9815;52.334;20.890;2023-05-19T02:53:43;10.40;99.90
19359;DHT22;9815;52.334;20.890;2023-05-19T02:56:11;10.40;99.90
19359;DHT22;9815;52.334;20.890;2023-05-19T02:58:39;10.50;99.90
19359;DHT22;9815;52.334;20.890;2023-05-19T03:01:08;10.50;99.90
19359;DHT22;9815;52.334;20.890;2023-05-19T03:03:36;10.50;99.90
19359;DHT22;9815;52.334;20.890;2023-05-19T03:06:05;10.50;99.90
19359;DHT22;9815;52.334;20.890;2023-05-19T03:08:35;10.40;99.90
19359;DHT22;9815;52.334;20.890;2023-05-19T03:11:08;10.50;99.90
19359;DHT22;9815;52.334;20.890;2023-05-19T03:13:36;10.40;99.90
19359;DHT22;9815;52.334;20.890;2023-05-19T03:16:04;10.40;99.90
19359;DHT22;9815;52.334;20.890;2023-05-19T03:18:34;10.50;99.90
19359;DHT22;9815;52.334;20.890;2023-05-19T03:21:02;10.40;99.90
19359;DHT22;9815;52.334;20.890;2023-05-19T03:23:31;10.40;99.90
19359;DHT22;9815;52.334;20.890;2023-05-19T03:26:01;10.40;99.90
19359;DHT22;9815;52.334;20.890;2023-05-19T03:28:29;10.40;99.90
19359;DHT22;9815;52.334;20.890;2023-05-19T03:30:57;10.40;99.90
19359;DHT22;9815;52.334;20.890;2023-05-19T03:33:30;10.30;99.90
19359;DHT22;9815;52.334;20.890;2023-05-19T03:35:59;10.40;99.90
19359;DHT22;9815;52.334;20.890;2023-05-19T03:38:31;10.30;99.90
19359;DHT22;9815;52.334;20.890;2023-05-19T03:41:01;10.30;99.90
19359;DHT22;9815;52.334;20.890;2023-05-19T03:43:30;10.30;99.90
19359;DHT22;9815;52.334;20.890;2023-05-19T03:46:02;10.30;99.90
19359;DHT22;9815;52.334;20.890;2023-05-19T03:48:57;10.30;99.90
19359;DHT22;9815;52.334;20.890;2023-05-19T03:51:55;10.30;99.90
19359;DHT22;9815;52.334;20.890;2023-05-19T03:54:31;10.30;99.90
19359;DHT22;9815;52.334;20.890;2023-05-19T03:57:01;10.40;99.90
19359;DHT22;9815;52.334;20.890;2023-05-19T03:59:29;10.30;99.90
19359;DHT22;9815;52.334;20.890;2023-05-19T04:01:58;10.30;99.90
19359;DHT22;9815;52.334;20.890;2023-05-19T04:04:27;10.30;99.90
19359;DHT22;9815;52.334;20.890;2023-05-19T04:06:55;10.30;99.90
19359;DHT22;9815;52.334;20.890;2023-05-19T04:09:23;10.20;99.90
19359;DHT22;9815;52.334;20.890;2023-05-19T04:11:51;10.20;99.90
19359;DHT22;9815;52.334;20.890;2023-05-19T04:14:21;10.30;99.90
19359;DHT22;9815;52.334;20.890;2023-05-19T04:16:50;10.30;99.90
19359;DHT22;9815;52.334;20.890;2023-05-19T04:19:19;10.40;99.90
19359;DHT22;9815;52.334;20.890;2023-05-19T04:21:48;10.30;99.90
19359;DHT22;9815;52.334;20.890;2023-05-19T04:24:16;10.40;99.90
19359;DHT22;9815;52.334;20.890;2023-05-19T04:26:44;10.40;99.90
19359;DHT22;9815;52.334;20.890;2023-05-19T04:29:14;10.40;99.90
19359;DHT22;9815;52.334;20.890;2023-05-19T04:31:45;10.50;99.90
19359;DHT22;9815;52.334;20.890;2023-05-19T04:34:14;10.40;99.90
19359;DHT22;9815;52.334;20.890;2023-05-19T04:36:46;10.50;99.90
19359;DHT22;9815;52.334;20.890;2023-05-19T04:39:19;10.40;99.90
19359;DHT22;9815;52.334;20.890;2023-05-19T04:41:48;10.50;99.90
19359;DHT22;9815;52.334;20.890;2023-05-19T04:44:17;10.50;99.90
19359;DHT22;9815;52.334;20.890;2023-05-19T04:46:50;10.50;99.90
19359;DHT22;9815;52.334;20.890;2023-05-19T04:49:21;10.60;99.90
19359;DHT22;9815;52.334;20.890;2023-05-19T04:51:50;10.60;99.90
19359;DHT22;9815;52.334;20.890;2023-05-19T04:54:25;10.60;99.90
19359;DHT22;9815;52.334;20.890;2023-05-19T04:56:54;10.70;99.90
19359;DHT22;9815;52.334;20.890;2023-05-19T04:59:24;10.70;99.90
19359;DHT22;9815;52.334;20.890;2023-05-19T05:01:54;10.80;99.90
19359;DHT22;9815;52.334;20.890;2023-05-19T05:04:24;10.80;99.90
19359;DHT22;9815;52.334;20.890;2023-05-19T05:06:52;10.80;99.90
19359;DHT22;9815;52.334;20.890;2023-05-19T05:09:22;10.80;99.90
19359;DHT22;9815;52.334;20.890;2023-05-19T05:11:50;10.80;99.90
19359;DHT22;9815;52.334;20.890;2023-05-19T05:14:23;10.90;99.90
19359;DHT22;9815;52.334;20.890;2023-05-19T05:16:57;10.90;99.90
19359;DHT22;9815;52.334;20.890;2023-05-19T05:19:26;10.90;99.90
19359;DHT22;9815;52.334;20.890;2023-05-19T05:21:55;10.90;99.90
19359;DHT22;9815;52.334;20.890;2023-05-19T05:24:25;10.80;99.90
19359;DHT22;9815;52.334;20.890;2023-05-19T05:26:57;10.80;99.90
19359;DHT22;9815;52.334;20.890;2023-05-19T05:29:26;10.80;99.90
19359;DHT22;9815;52.334;20.890;2023-05-19T05:31:56;10.80;99.90
19359;DHT22;9815;52.334;20.890;2023-05-19T05:34:24;10.80;99.90
19359;DHT22;9815;52.334;20.890;2023-05-19T05:36:54;10.90;99.90
19359;DHT22;9815;52.334;20.890;2023-05-19T05:39:22;10.90;99.90
19359;DHT22;9815;52.334;20.890;2023-05-19T05:41:51;10.90;99.90
19359;DHT22;9815;52.334;20.890;2023-05-19T05:44:19;10.90;99.90
19359;DHT22;9815;52.334;20.890;2023-05-19T05:46:48;11.00;99.90
19359;DHT22;9815;52.334;20.890;2023-05-19T05:49:18;11.00;99.90
19359;DHT22;9815;52.334;20.890;2023-05-19T05:51:47;11.00;99.90
19359;DHT22;9815;52.334;20.890;2023-05-19T05:54:34;11.10;99.90
19359;DHT22;9815;52.334;20.890;2023-05-19T05:57:03;11.20;99.90
19359;DHT22;9815;52.334;20.890;2023-05-19T05:59:31;11.20;99.90
19359;DHT22;9815;52.334;20.890;2023-05-19T06:02:00;11.20;99.90
19359;DHT22;9815;52.334;20.890;2023-05-19T06:04:31;11.20;99.90
19359;DHT22;9815;52.334;20.890;2023-05-19T06:06:59;11.20;99.90
19359;DHT22;9815;52.334;20.890;2023-05-19T06:09:32;11.20;99.90
19359;DHT22;9815;52.334;20.890;2023-05-19T06:12:02;11.20;99.90
19359;DHT22;9815;52.334;20.890;2023-05-19T06:14:35;11.20;99.90
19359;DHT22;9815;52.334;20.890;2023-05-19T06:17:37;11.20;99.90
19359;DHT22;9815;52.334;20.890;2023-05-19T06:20:08;11.20;99.90
19359;DHT22;9815;52.334;20.890;2023-05-19T06:22:36;11.10;99.90
19359;DHT22;9815;52.334;20.890;2023-05-19T06:25:05;11.00;99.90
19359;DHT22;9815;52.334;20.890;2023-05-19T06:27:35;11.10;99.90
19359;DHT22;9815;52.334;20.890;2023-05-19T06:30:03;11.30;99.90
19359;DHT22;9815;52.334;20.890;2023-05-19T06:32:42;11.30;99.90
19359;DHT22;9815;52.334;20.890;2023-05-19T06:35:13;11.40;99.90
19359;DHT22;9815;52.334;20.890;2023-05-19T06:37:42;11.40;99.90
19359;DHT22;9815;52.334;20.890;2023-05-19T06:40:11;11.40;99.90
19359;DHT22;9815;52.334;20.890;2023-05-19T06:42:41;11.40;99.90
19359;DHT22;9815;52.334;20.890;2023-05-19T06:45:15;11.50;99.90
19359;DHT22;9815;52.334;20.890;2023-05-19T06:47:49;11.60;99.90
19359;DHT22;9815;52.334;20.890;2023-05-19T06:50:19;11.50;99.90
19359;DHT22;9815;52.334;20.890;2023-05-19T06:52:48;11.50;99.90
19359;DHT22;9815;52.334;20.890;2023-05-19T06:55:17;11.50;99.90
19359;DHT22;9815;52.334;20.890;2023-05-19T06:57:48;11.50;99.90
19359;DHT22;9815;52.334;20.890;2023-05-19T07:00:18;11.60;99.90
19359;DHT22;9815;52.334;20.890;2023-05-19T07:02:51;11.50;99.90
19359;DHT22;9815;52.334;20.890;2023-05-19T07:05:21;11.70;99.90
19359;DHT22;9815;52.334;20.890;2023-05-19T07:07:54;11.80;99.90
19359;DHT22;9815;52.334;20.890;2023-05-19T07:10:25;11.80;99.90
19359;DHT22;9815;52.334;20.890;2023-05-19T07:12:55;11.80;99.90
19359;DHT22;9815;52.334;20.890;2023-05-19T07:15:27;11.80;99.90
19359;DHT22;9815;52.334;20.890;2023-05-19T07:17:56;11.70;99.90
19359;DHT22;9815;52.334;20.890;2023-05-19T07:20:26;11.80;99.90
19359;DHT22;9815;52.334;20.890;2023-05-19T07:22:56;11.70;99.90
19359;DHT22;9815;52.334;20.890;2023-05-19T07:25:24;11.70;99.90
19359;DHT22;9815;52.334;20.890;2023-05-19T07:27:54;11.70;99.90
19359;DHT22;9815;52.334;20.890;2023-05-19T07:30:22;11.70;99.90
19359;DHT22;9815;52.334;20.890;2023-05-19T07:32:51;11.80;99.90
19359;DHT22;9815;52.334;20.890;2023-05-19T07:35:19;11.80;99.90
19359;DHT22;9815;52.334;20.890;2023-05-19T07:37:50;11.80;99.90
19359;DHT22;9815;52.334;20.890;2023-05-19T07:40:19;11.80;99.90
19359;DHT22;9815;52.334;20.890;2023-05-19T07:42:48;11.80;99.90
19359;DHT22;9815;52.334;20.890;2023-05-19T07:45:16;11.80;99.90
19359;DHT22;9815;52.334;20.890;2023-05-19T07:47:44;11.80;99.90
19359;DHT22;9815;52.334;20.890;2023-05-19T07:50:13;11.90;99.90
19359;DHT22;9815;52.334;20.890;2023-05-19T07:52:42;12.00;99.90
19359;DHT22;9815;52.334;20.890;2023-05-19T07:55:11;12.00;99.90
19359;DHT22;9815;52.334;20.890;2023-05-19T07:57:40;12.00;99.90
19359;DHT22;9815;52.334;20.890;2023-05-19T08:00:09;12.10;99.90
19359;DHT22;9815;52.334;20.890;2023-05-19T08:02:38;11.80;99.90
19359;DHT22;9815;52.334;20.890;2023-05-19T08:05:07;11.90;99.90
19359;DHT22;9815;52.334;20.890;2023-05-19T08:07:36;11.90;99.90
19359;DHT22;9815;52.334;20.890;2023-05-19T08:10:04;11.80;99.90
19359;DHT22;9815;52.334;20.890;2023-05-19T08:12:34;12.00;99.90
19359;DHT22;9815;52.334;20.890;2023-05-19T08:15:02;11.90;99.90
19359;DHT22;9815;52.334;20.890;2023-05-19T08:17:31;12.00;99.90
19359;DHT22;9815;52.334;20.890;2023-05-19T08:19:59;11.90;99.90
19359;DHT22;9815;52.334;20.890;2023-05-19T08:22:27;12.00;99.90
19359;DHT22;9815;52.334;20.890;2023-05-19T08:24:55;12.00;99.90
19359;DHT22;9815;52.334;20.890;2023-05-19T08:27:23;12.00;99.90
19359;DHT22;9815;52.334;20.890;2023-05-19T08:29:53;12.00;99.90
19359;DHT22;9815;52.334;20.890;2023-05-19T08:32:21;12.00;99.90
19359;DHT22;9815;52.334;20.890;2023-05-19T08:34:50;12.00;99.90
19359;DHT22;9815;52.334;20.890;2023-05-19T08:37:18;11.90;99.90
19359;DHT22;9815;52.334;20.890;2023-05-19T08:39:46;11.90;99.90
19359;DHT22;9815;52.334;20.890;2023-05-19T08:42:14;11.80;99.90
19359;DHT22;9815;52.334;20.890;2023-05-19T08:44:42;11.80;99.90
19359;DHT22;9815;52.334;20.890;2023-05-19T08:47:13;11.80;99.90
19359;DHT22;9815;52.334;20.890;2023-05-19T08:49:43;11.80;99.90
19359;DHT22;9815;52.334;20.890;2023-05-19T08:52:21;11.80;99.90
19359;DHT22;9815;52.334;20.890;2023-05-19T08:54:53;11.90;99.90
19359;DHT22;9815;52.334;20.890;2023-05-19T08:57:23;11.90;99.90
19359;DHT22;9815;52.334;20.890;2023-05-19T08:59:54;12.00;99.90
19359;DHT22;9815;52.334;20.890;2023-05-19T09:02:32;12.30;99.90
19359;DHT22;9815;52.334;20.890;2023-05-19T09:05:01;12.30;99.90
19359;DHT22;9815;52.334;20.890;2023-05-19T09:07:30;12.40;99.90
19359;DHT22;9815;52.334;20.890;2023-05-19T09:10:00;12.50;99.90
19359;DHT22;9815;52.334;20.890;2023-05-19T09:12:29;12.60;99.90
19359;DHT22;9815;52.334;20.890;2023-05-19T09:14:58;12.50;99.90
19359;DHT22;9815;52.334;20.890;2023-05-19T09:17:26;12.50;99.90
19359;DHT22;9815;52.334;20.890;2023-05-19T09:19:55;12.60;99.90
19359;DHT22;9815;52.334;20.890;2023-05-19T09:22:23;12.70;99.90
19359;DHT22;9815;52.334;20.890;2023-05-19T09:24:52;12.60;99.90
19359;DHT22;9815;52.334;20.890;2023-05-19T09:27:21;12.70;99.90
19359;DHT22;9815;52.334;20.890;2023-05-19T09:29:49;12.80;99.90
19359;DHT22;9815;52.334;20.890;2023-05-19T09:32:23;12.80;99.90
19359;DHT22;9815;52.334;20.890;2023-05-19T09:34:52;12.80;99.90
19359;DHT22;9815;52.334;20.890;2023-05-19T09:37:23;12.80;99.90
19359;DHT22;9815;52.334;20.890;2023-05-19T09:39:54;12.80;99.90
19359;DHT22;9815;52.334;20.890;2023-05-19T09:42:26;12.80;99.90
19359;DHT22;9815;52.334;20.890;2023-05-19T09:44:59;12.80;99.90
19359;DHT22;9815;52.334;20.890;2023-05-19T09:47:32;12.90;99.90
19359;DHT22;9815;52.334;20.890;2023-05-19T09:50:01;12.90;99.90
19359;DHT22;9815;52.334;20.890;2023-05-19T09:52:31;13.00;99.90
19359;DHT22;9815;52.334;20.890;2023-05-19T09:55:01;12.90;99.90
19359;DHT22;9815;52.334;20.890;2023-05-19T09:57:33;12.90;99.90
19359;DHT22;9815;52.334;20.890;2023-05-19T10:00:06;13.00;99.90
19359;DHT22;9815;52.334;20.890;2023-05-19T10:02:42;13.00;99.90
19359;DHT22;9815;52.334;20.890;2023-05-19T10:05:12;13.00;99.90
19359;DHT22;9815;52.334;20.890;2023-05-19T10:07:45;13.00;99.90
19359;DHT22;9815;52.334;20.890;2023-05-19T10:10:14;13.00;99.90
19359;DHT22;9815;52.334;20.890;2023-05-19T10:12:43;13.00;99.90
19359;DHT22;9815;52.334;20.890;2023-05-19T10:15:13;12.90;99.90
19359;DHT22;9815;52.334;20.890;2023-05-19T10:17:42;12.90;99.90
19359;DHT22;9815;52.334;20.890;2023-05-19T10:20:13;12.90;99.90
19359;DHT22;9815;52.334;20.890;2023-05-19T10:22:44;12.90;99.90
19359;DHT22;9815;52.334;20.890;2023-05-19T10:25:12;12.80;99.90
19359;DHT22;9815;52.334;20.890;2023-05-19T10:27:49;12.70;99.90
19359;DHT22;9815;52.334;20.890;2023-05-19T10:30:24;12.80;99.90
19359;DHT22;9815;52.334;20.890;2023-05-19T10:32:54;12.80;99.90
19359;DHT22;9815;52.334;20.890;2023-05-19T10:35:37;12.90;99.90
19359;DHT22;9815;52.334;20.890;2023-05-19T10:38:18;12.90;99.90
19359;DHT22;9815;52.334;20.890;2023-05-19T10:40:58;12.90;99.90
19359;DHT22;9815;52.334;20.890;2023-05-19T10:43:37;13.00;99.90
19359;DHT22;9815;52.334;20.890;2023-05-19T10:46:11;13.20;99.90
19359;DHT22;9815;52.334;20.890;2023-05-19T10:49:06;13.30;99.90
19359;DHT22;9815;52.334;20.890;2023-05-19T10:51:34;13.50;99.90
19359;DHT22;9815;52.334;20.890;2023-05-19T10:54:42;13.70;99.90
19359;DHT22;9815;52.334;20.890;2023-05-19T10:57:16;13.70;99.90
19359;DHT22;9815;52.334;20.890;2023-05-19T10:59:44;13.80;99.90
19359;DHT22;9815;52.334;20.890;2023-05-19T11:02:38;13.70;99.90
19359;DHT22;9815;52.334;20.890;2023-05-19T11:05:08;13.70;99.90
19359;DHT22;9815;52.334;20.890;2023-05-19T11:07:36;13.70;99.90
19359;DHT22;9815;52.334;20.890;2023-05-19T11:10:10;13.80;99.90
19359;DHT22;9815;52.334;20.890;2023-05-19T11:12:43;13.60;99.90
19359;DHT22;9815;52.334;20.890;2023-05-19T11:15:13;13.70;99.90
19359;DHT22;9815;52.334;20.890;2023-05-19T11:17:47;13.70;99.90
19359;DHT22;9815;52.334;20.890;2023-05-19T11:20:54;13.80;99.90
19359;DHT22;9815;52.334;20.890;2023-05-19T11:23:24;13.90;99.90
19359;DHT22;9815;52.334;20.890;2023-05-19T11:25:54;14.00;99.90
19359;DHT22;9815;52.334;20.890;2023-05-19T11:28:22;14.00;99.90
19359;DHT22;9815;52.334;20.890;2023-05-19T11:30:54;14.10;99.90
19359;DHT22;9815;52.334;20.890;2023-05-19T11:33:24;14.10;99.90
19359;DHT22;9815;52.334;20.890;2023-05-19T11:35:55;14.20;99.90
19359;DHT22;9815;52.334;20.890;2023-05-19T11:38:24;14.20;99.90
19359;DHT22;9815;52.334;20.890;2023-05-19T11:40:56;14.20;99.90
19359;DHT22;9815;52.334;20.890;2023-05-19T11:43:24;14.30;99.90
19359;DHT22;9815;52.334;20.890;2023-05-19T11:45:53;14.30;99.90
19359;DHT22;9815;52.334;20.890;2023-05-19T11:48:22;14.30;99.90
19359;DHT22;9815;52.334;20.890;2023-05-19T11:50:50;14.40;99.90
19359;DHT22;9815;52.334;20.890;2023-05-19T11:53:19;14.50;99.90
19359;DHT22;9815;52.334;20.890;2023-05-19T11:55:47;14.60;99.90
19359;DHT22;9815;52.334;20.890;2023-05-19T11:58:24;14.30;99.90
19359;DHT22;9815;52.334;20.890;2023-05-19T12:00:53;14.40;99.90
19359;DHT22;9815;52.334;20.890;2023-05-19T12:03:22;14.40;99.90
19359;DHT22;9815;52.334;20.890;2023-05-19T12:05:54;14.40;99.90
19359;DHT22;9815;52.334;20.890;2023-05-19T12:08:22;14.50;99.90
19359;DHT22;9815;52.334;20.890;2023-05-19T12:10:51;14.50;99.90
19359;DHT22;9815;52.334;20.890;2023-05-19T12:13:21;14.60;99.90
19359;DHT22;9815;52.334;20.890;2023-05-19T12:15:49;14.60;99.90
19359;DHT22;9815;52.334;20.890;2023-05-19T12:18:18;14.60;99.90
19359;DHT22;9815;52.334;20.890;2023-05-19T12:20:47;14.50;99.90
19359;DHT22;9815;52.334;20.890;2023-05-19T12:23:15;14.40;99.90
19359;DHT22;9815;52.334;20.890;2023-05-19T12:25:43;14.40;99.90
19359;DHT22;9815;52.334;20.890;2023-05-19T12:28:11;14.30;99.90
19359;DHT22;9815;52.334;20.890;2023-05-19T12:30:46;14.20;99.90
19359;DHT22;9815;52.334;20.890;2023-05-19T12:33:15;14.20;99.90
19359;DHT22;9815;52.334;20.890;2023-05-19T12:35:45;14.20;99.90
19359;DHT22;9815;52.334;20.890;2023-05-19T12:38:20;14.30;99.90
19359;DHT22;9815;52.334;20.890;2023-05-19T12:40:48;14.30;99.90
19359;DHT22;9815;52.334;20.890;2023-05-19T12:43:20;14.40;99.90
19359;DHT22;9815;52.334;20.890;2023-05-19T12:45:50;14.30;99.90
19359;DHT22;9815;52.334;20.890;2023-05-19T12:48:20;14.30;99.90
19359;DHT22;9815;52.334;20.890;2023-05-19T12:50:51;14.40;99.90
19359;DHT22;9815;52.334;20.890;2023-05-19T12:53:19;14.50;99.90
19359;DHT22;9815;52.334;20.890;2023-05-19T12:55:50;14.50;99.90
19359;DHT22;9815;52.334;20.890;2023-05-19T12:58:19;14.60;99.90
19359;DHT22;9815;52.334;20.890;2023-05-19T13:00:50;14.60;99.90
19359;DHT22;9815;52.334;20.890;2023-05-19T13:03:23;14.50;99.90
19359;DHT22;9815;52.334;20.890;2023-05-19T13:05:51;14.50;99.90
19359;DHT22;9815;52.334;20.890;2023-05-19T13:08:20;14.50;99.90
19359;DHT22;9815;52.334;20.890;2023-05-19T13:10:49;14.60;99.90
19359;DHT22;9815;52.334;20.890;2023-05-19T13:13:18;14.60;99.90
19359;DHT22;9815;52.334;20.890;2023-05-19T13:15:46;14.70;99.90
19359;DHT22;9815;52.334;20.890;2023-05-19T13:18:16;14.70;99.90
19359;DHT22;9815;52.334;20.890;2023-05-19T13:20:45;14.60;99.90
19359;DHT22;9815;52.334;20.890;2023-05-19T13:23:16;14.50;99.90
19359;DHT22;9815;52.334;20.890;2023-05-19T13:25:44;14.50;99.90
19359;DHT22;9815;52.334;20.890;2023-05-19T13:28:12;14.50;99.90
19359;DHT22;9815;52.334;20.890;2023-05-19T13:30:42;14.60;99.90
19359;DHT22;9815;52.334;20.890;2023-05-19T13:33:10;14.60;99.90
19359;DHT22;9815;52.334;20.890;2023-05-19T13:35:40;14.70;99.90
19359;DHT22;9815;52.334;20.890;2023-05-19T13:38:08;14.70;99.90
19359;DHT22;9815;52.334;20.890;2023-05-19T13:40:37;14.70;99.90
19359;DHT22;9815;52.334;20.890;2023-05-19T13:43:05;14.60;99.90
19359;DHT22;9815;52.334;20.890;2023-05-19T13:45:34;14.70;99.90
19359;DHT22;9815;52.334;20.890;2023-05-19T13:48:04;14.70;99.90
19359;DHT22;9815;52.334;20.890;2023-05-19T13:50:33;14.70;99.90
19359;DHT22;9815;52.334;20.890;2023-05-19T13:53:02;14.60;99.90
19359;DHT22;9815;52.334;20.890;2023-05-19T13:55:31;14.50;99.90
19359;DHT22;9815;52.334;20.890;2023-05-19T13:57:59;14.70;99.90
19359;DHT22;9815;52.334;20.890;2023-05-19T14:00:28;14.70;99.90
19359;DHT22;9815;52.334;20.890;2023-05-19T14:02:57;14.60;99.90
19359;DHT22;9815;52.334;20.890;2023-05-19T14:05:26;14.70;99.90
19359;DHT22;9815;52.334;20.890;2023-05-19T14:07:55;14.80;99.90
19359;DHT22;9815;52.334;20.890;2023-05-19T14:10:25;14.70;99.90
19359;DHT22;9815;52.334;20.890;2023-05-19T14:12:54;14.80;99.90
19359;DHT22;9815;52.334;20.890;2023-05-19T14:15:34;14.70;99.90
19359;DHT22;9815;52.334;20.890;2023-05-19T14:18:04;14.70;99.90
19359;DHT22;9815;52.334;20.890;2023-05-19T14:20:33;14.80;99.90
19359;DHT22;9815;52.334;20.890;2023-05-19T14:23:02;14.90;99.90
19359;DHT22;9815;52.334;20.890;2023-05-19T14:25:31;14.80;99.90
19359;DHT22;9815;52.334;20.890;2023-05-19T14:28:00;14.80;99.90
19359;DHT22;9815;52.334;20.890;2023-05-19T14:30:28;14.80;99.90
19359;DHT22;9815;52.334;20.890;2023-05-19T14:32:56;14.90;99.90
19359;DHT22;9815;52.334;20.890;2023-05-19T14:35:25;14.70;99.90
19359;DHT22;9815;52.334;20.890;2023-05-19T14:37:53;14.70;99.90
19359;DHT22;9815;52.334;20.890;2023-05-19T14:40:21;14.70;99.90
19359;DHT22;9815;52.334;20.890;2023-05-19T14:42:51;14.60;99.90
19359;DHT22;9815;52.334;20.890;2023-05-19T14:45:19;14.70;99.90
19359;DHT22;9815;52.334;20.890;2023-05-19T14:47:47;14.50;99.90
19359;DHT22;9815;52.334;20.890;2023-05-19T14:50:16;14.50;99.90
19359;DHT22;9815;52.334;20.890;2023-05-19T14:52:46;14.40;99.90
19359;DHT22;9815;52.334;20.890;2023-05-19T14:55:15;14.50;99.90
19359;DHT22;9815;52.334;20.890;2023-05-19T14:57:43;14.60;99.90
19359;DHT22;9815;52.334;20.890;2023-05-19T15:00:13;14.70;99.90
19359;DHT22;9815;52.334;20.890;2023-05-19T15:02:42;14.70;99.90
19359;DHT22;9815;52.334;20.890;2023-05-19T15:05:10;14.70;99.90
19359;DHT22;9815;52.334;20.890;2023-05-19T15:07:39;14.70;99.90
19359;DHT22;9815;52.334;20.890;2023-05-19T15:10:07;14.80;99.90
19359;DHT22;9815;52.334;20.890;2023-05-19T15:12:35;14.80;99.90
19359;DHT22;9815;52.334;20.890;2023-05-19T15:15:04;14.70;99.90
19359;DHT22;9815;52.334;20.890;2023-05-19T15:17:34;14.60;99.90
19359;DHT22;9815;52.334;20.890;2023-05-19T15:20:03;14.60;99.90
19359;DHT22;9815;52.334;20.890;2023-05-19T15:22:31;14.50;99.90
19359;DHT22;9815;52.334;20.890;2023-05-19T15:24:59;14.50;99.90
19359;DHT22;9815;52.334;20.890;2023-05-19T15:27:28;14.40;99.90
19359;DHT22;9815;52.334;20.890;2023-05-19T15:29:56;14.40;99.90
19359;DHT22;9815;52.334;20.890;2023-05-19T15:32:25;14.40;99.90
19359;DHT22;9815;52.334;20.890;2023-05-19T15:34:54;14.40;99.90
19359;DHT22;9815;52.334;20.890;2023-05-19T15:37:25;14.40;99.90
19359;DHT22;9815;52.334;20.890;2023-05-19T15:39:54;14.40;99.90
19359;DHT22;9815;52.334;20.890;2023-05-19T15:42:22;14.40;99.90
19359;DHT22;9815;52.334;20.890;2023-05-19T15:44:50;14.40;99.90
19359;DHT22;9815;52.334;20.890;2023-05-19T15:47:18;14.50;99.90
19359;DHT22;9815;52.334;20.890;2023-05-19T15:49:47;14.50;99.90
19359;DHT22;9815;52.334;20.890;2023-05-19T15:52:17;14.40;99.90